createdAt,value
2019-04-21T00:00:11.297Z,5.1
2019-04-21T00:01:08.609Z,5.1
2019-04-21T00:02:05.607Z,4.9
2019-04-21T00:03:07.453Z,5.2
2019-04-21T00:04:11.303Z,4.8
2019-04-21T00:05:24.578Z,4.9
2019-04-21T00:06:23.717Z,5.0
2019-04-21T00:07:22.471Z,5.0
2019-04-21T00:08:33.382Z,5.1
2019-04-21T00:09:26.142Z,5.0
2019-04-21T00:10:26.918Z,4.8
2019-04-21T00:11:26.457Z,4.6
2019-04-21T00:12:18.085Z,4.9
2019-04-21T00:13:20.498Z,5.1
2019-04-21T00:14:16.969Z,5.2
2019-04-21T00:15:15.780Z,5.2
2019-04-21T00:16:09.186Z,4.8
2019-04-21T00:17:09.667Z,5.2
2019-04-21T00:18:08.868Z,5.0
2019-04-21T00:19:09.112Z,5.1
2019-04-21T00:20:12.706Z,5.2
2019-04-21T00:21:12.117Z,5.3
2019-04-21T00:22:15.026Z,5.4
2019-04-21T00:23:19.406Z,5.2
2019-04-21T00:24:16.477Z,5.1
2019-04-21T00:25:18.154Z,5.2
2019-04-21T00:26:16.154Z,5.1
2019-04-21T00:27:21.646Z,5.0
2019-04-21T00:28:24.130Z,5.0
2019-04-21T00:29:28.937Z,5.0
2019-04-21T00:30:21.780Z,5.2
2019-04-21T00:31:23.026Z,4.8
2019-04-21T00:32:16.715Z,4.9
2019-04-21T00:33:09.041Z,5.0
2019-04-21T00:34:06.724Z,5.2
2019-04-21T00:35:08.562Z,4.9
2019-04-21T00:36:11.479Z,5.1
2019-04-21T00:37:12.098Z,4.8
2019-04-21T00:38:27.484Z,5.0
2019-04-21T00:39:28.901Z,4.8
2019-04-21T00:40:22.426Z,5.2
2019-04-21T00:41:24.959Z,5.3
2019-04-21T00:42:19.979Z,5.3
2019-04-21T00:43:19.776Z,5.1
2019-04-21T00:44:16.501Z,5.0
2019-04-21T00:45:15.129Z,4.9
2019-04-21T00:46:12.120Z,4.9
2019-04-21T00:47:25.493Z,4.9
2019-04-21T00:48:22.960Z,5.2
2019-04-21T00:49:19.357Z,5.5
2019-04-21T00:50:27.868Z,5.1
2019-04-21T00:51:33.386Z,5.0
2019-04-21T00:52:39.596Z,4.9
2019-04-21T00:53:29.679Z,4.8
2019-04-21T00:54:27.775Z,4.9
2019-04-21T00:55:33.514Z,5.1
2019-04-21T00:56:21.875Z,5.3
2019-04-21T00:57:27.803Z,5.2
2019-04-21T00:58:29.977Z,4.9
2019-04-21T00:59:25.955Z,5.2
2019-04-21T01:00:22.094Z,4.9
2019-04-21T01:01:21.777Z,5.6
2019-04-21T01:02:24.895Z,5.1
2019-04-21T01:03:28.209Z,5.1
2019-04-21T01:04:24.646Z,4.7
2019-04-21T01:05:21.153Z,5.0
2019-04-21T01:06:26.827Z,5.4
2019-04-21T01:07:22.154Z,4.8
2019-04-21T01:08:21.952Z,5.1
2019-04-21T01:09:19.928Z,4.8
2019-04-21T01:10:14.657Z,5.1
2019-04-21T01:11:24.573Z,5.4
2019-04-21T01:12:29.806Z,5.4
2019-04-21T01:13:29.415Z,5.4
2019-04-21T01:14:32.884Z,5.6
2019-04-21T01:15:35.281Z,5.3
2019-04-21T01:16:30.272Z,5.2
2019-04-21T01:17:25.815Z,5.1
2019-04-21T01:18:20.780Z,5.2
2019-04-21T01:19:20.922Z,5.2
2019-04-21T01:20:13.258Z,5.3
2019-04-21T01:21:13.415Z,5.2
2019-04-21T01:22:06.024Z,5.3
2019-04-21T01:23:06.385Z,5.3
2019-04-21T01:24:13.790Z,5.2
2019-04-21T01:25:11.915Z,5.2
2019-04-21T01:26:14.654Z,5.2
2019-04-21T01:27:10.101Z,5.2
2019-04-21T01:28:18.805Z,5.0
2019-04-21T01:29:15.790Z,5.2
2019-04-21T01:30:23.498Z,5.4
2019-04-21T01:31:17.315Z,4.9
2019-04-21T01:32:25.526Z,5.1
2019-04-21T01:33:30.855Z,4.8
2019-04-21T01:34:22.012Z,5.0
2019-04-21T01:35:21.509Z,5.3
2019-04-21T01:36:18.107Z,5.3
2019-04-21T01:37:28.513Z,5.3
2019-04-21T01:38:28.915Z,5.2
2019-04-21T01:39:27.119Z,5.2
2019-04-21T01:40:29.753Z,4.9
2019-04-21T01:41:25.488Z,4.9
2019-04-21T01:42:21.419Z,5.1
2019-04-21T01:43:22.165Z,4.8
2019-04-21T01:44:25.078Z,4.8
2019-04-21T01:45:22.402Z,5.1
2019-04-21T01:46:22.671Z,4.7
2019-04-21T01:47:15.793Z,5.0
2019-04-21T01:48:22.906Z,4.8
2019-04-21T01:49:13.046Z,4.9
2019-04-21T01:50:20.097Z,4.9
2019-04-21T01:51:12.919Z,4.8
2019-04-21T01:52:34.881Z,5.0
2019-04-21T01:53:24.894Z,4.9
2019-04-21T01:54:26.855Z,4.8
2019-04-21T01:55:24.962Z,4.9
2019-04-21T01:56:21.699Z,4.8
2019-04-21T01:57:18.346Z,5.0
2019-04-21T01:58:15.422Z,4.8
2019-04-21T01:59:10.204Z,4.7
2019-04-21T02:00:13.389Z,4.9
2019-04-21T02:01:16.038Z,4.8
2019-04-21T02:02:26.594Z,5.1
2019-04-21T02:03:43.685Z,4.6
2019-04-21T02:04:34.718Z,4.6
2019-04-21T02:05:26.697Z,4.5
2019-04-21T02:06:21.288Z,4.7
2019-04-21T02:07:24.903Z,4.9
2019-04-21T02:08:24.268Z,4.7
2019-04-21T02:09:20.190Z,4.8
2019-04-21T02:10:27.051Z,4.7
2019-04-21T02:11:24.510Z,4.7
2019-04-21T02:12:26.603Z,4.5
2019-04-21T02:13:18.781Z,4.8
2019-04-21T02:15:26.832Z,4.9
2019-04-21T02:16:23.835Z,4.5
2019-04-21T02:17:23.524Z,4.7
2019-04-21T02:18:23.052Z,4.6
2019-04-21T02:19:21.578Z,4.7
2019-04-21T02:20:15.218Z,4.9
2019-04-21T02:21:18.682Z,4.5
2019-04-21T02:22:33.832Z,4.7
2019-04-21T02:24:31.239Z,4.6
2019-04-21T02:25:25.845Z,4.6
2019-04-21T02:26:22.618Z,4.3
2019-04-21T02:27:23.417Z,4.5
2019-04-21T02:28:29.649Z,4.8
2019-04-21T02:29:26.738Z,4.9
2019-04-21T02:30:36.025Z,4.4
2019-04-21T02:32:38.965Z,5.0
2019-04-21T02:33:39.131Z,4.8
2019-04-21T02:34:37.419Z,4.7
2019-04-21T02:35:38.387Z,4.9
2019-04-21T02:36:53.283Z,4.5
2019-04-21T02:37:44.554Z,4.9
2019-04-21T02:38:39.866Z,4.7
2019-04-21T02:39:30.444Z,4.3
2019-04-21T02:41:45.670Z,4.8
2019-04-21T02:42:41.597Z,4.8
2019-04-21T02:43:28.264Z,5.0
2019-04-21T02:44:39.361Z,4.9
2019-04-21T02:45:34.612Z,4.8
2019-04-21T02:46:45.396Z,4.9
2019-04-21T02:48:39.282Z,4.8
2019-04-21T02:49:56.608Z,4.6
2019-04-21T02:50:31.849Z,4.8
2019-04-21T02:51:33.785Z,4.7
2019-04-21T02:52:37.767Z,4.4
2019-04-21T02:53:45.414Z,4.5
2019-04-21T02:55:31.172Z,4.6
2019-04-21T02:56:37.900Z,4.6
2019-04-21T02:57:34.268Z,4.5
2019-04-21T02:58:34.418Z,4.5
2019-04-21T02:59:33.401Z,4.4
2019-04-21T03:00:40.587Z,5.0
2019-04-21T03:04:34.785Z,4.7
2019-04-21T03:05:31.020Z,4.8
2019-04-21T03:06:35.014Z,4.6
2019-04-21T03:08:43.043Z,4.9
2019-04-21T03:09:31.770Z,4.7
2019-04-21T03:10:39.246Z,4.8
2019-04-21T03:11:25.163Z,4.6
2019-04-21T03:13:41.076Z,4.7
2019-04-21T03:15:47.321Z,4.8
2019-04-21T03:16:26.016Z,4.7
2019-04-21T03:17:53.613Z,4.7
2019-04-21T03:18:34.084Z,4.7
2019-04-21T03:20:37.688Z,4.4
2019-04-21T03:21:29.103Z,4.9
2019-04-21T03:23:38.502Z,5.1
2019-04-21T03:25:41.604Z,4.8
2019-04-21T03:31:01.903Z,4.4
2019-04-21T03:34:57.496Z,4.8
2019-04-21T03:36:49.929Z,4.8
2019-04-21T03:37:35.455Z,4.7
2019-04-21T03:38:42.864Z,4.5
2019-04-21T03:39:39.524Z,5.0
2019-04-21T03:40:26.160Z,4.8
2019-04-21T03:42:42.999Z,4.9
2019-04-21T03:44:33.146Z,4.9
2019-04-21T03:46:35.729Z,4.9
2019-04-21T03:47:31.181Z,4.8
2019-04-21T03:51:35.876Z,4.6
2019-04-21T03:52:38.793Z,4.9
2019-04-21T03:53:31.324Z,4.7
2019-04-21T03:54:37.426Z,4.7
2019-04-21T03:56:55.228Z,5.0
2019-04-21T03:57:46.271Z,4.7
2019-04-21T03:59:30.115Z,4.6
2019-04-21T04:01:23.972Z,4.4
2019-04-21T04:02:47.244Z,4.5
2019-04-21T04:05:34.635Z,4.5
2019-04-21T04:06:33.905Z,4.9
2019-04-21T04:08:51.569Z,4.8
2019-04-21T04:09:36.777Z,4.7
2019-04-21T04:10:34.728Z,4.6
2019-04-21T04:11:38.126Z,4.7
2019-04-21T04:13:37.727Z,4.4
2019-04-21T04:14:40.180Z,4.6
2019-04-21T04:15:42.844Z,4.5
2019-04-21T04:18:46.139Z,4.9
2019-04-21T04:20:46.609Z,4.6
2019-04-21T04:23:40.581Z,4.6
2019-04-21T04:24:51.585Z,4.5
2019-04-21T04:25:28.034Z,4.5
2019-04-21T04:26:31.461Z,4.6
2019-04-21T04:27:47.283Z,4.5
2019-04-21T04:28:38.456Z,4.5
2019-04-21T04:30:39.439Z,4.6
2019-04-21T04:32:44.317Z,4.8
2019-04-21T04:33:37.183Z,4.6
2019-04-21T04:35:42.409Z,4.7
2019-04-21T04:39:42.842Z,4.6
2019-04-21T04:40:30.998Z,4.7
2019-04-21T04:41:45.650Z,4.8
2019-04-21T04:42:43.315Z,4.5
2019-04-21T04:45:38.358Z,4.9
2019-04-21T04:46:35.644Z,4.8
2019-04-21T04:48:27.967Z,4.7
2019-04-21T04:50:45.868Z,5.2
2019-04-21T04:51:47.874Z,5.3
2019-04-21T04:53:41.914Z,5.3
2019-04-21T04:54:50.485Z,5.1
2019-04-21T04:55:33.754Z,4.8
2019-04-21T04:56:31.103Z,5.1
2019-04-21T04:57:49.057Z,4.9
2019-04-21T04:58:53.135Z,5.1
2019-04-21T05:00:35.141Z,5.2
2019-04-21T05:01:46.598Z,5.1
2019-04-21T05:02:33.860Z,5.2
2019-04-21T05:03:45.655Z,5.2
2019-04-21T05:04:39.788Z,5.2
2019-04-21T05:05:48.882Z,5.0
2019-04-21T05:06:42.745Z,5.2
2019-04-21T05:07:43.101Z,4.9
2019-04-21T05:08:49.249Z,5.2
2019-04-21T05:09:33.651Z,5.1
2019-04-21T05:10:38.538Z,5.3
2019-04-21T05:11:46.747Z,5.4
2019-04-21T05:12:29.588Z,5.0
2019-04-21T05:13:39.953Z,5.5
2019-04-21T05:14:30.345Z,5.2
2019-04-21T05:15:30.062Z,5.2
2019-04-21T05:16:41.158Z,5.5
2019-04-21T05:17:37.923Z,5.0
2019-04-21T05:18:35.172Z,5.1
2019-04-21T05:20:26.130Z,5.0
2019-04-21T05:21:35.648Z,5.3
2019-04-21T05:23:29.277Z,5.2
2019-04-21T05:24:23.029Z,5.3
2019-04-21T05:25:19.616Z,5.3
2019-04-21T05:26:14.560Z,5.3
2019-04-21T05:27:16.431Z,5.1
2019-04-21T05:28:17.620Z,5.3
2019-04-21T05:29:13.034Z,5.2
2019-04-21T05:30:28.482Z,5.1
2019-04-21T05:31:25.390Z,5.1
2019-04-21T05:32:26.643Z,5.2
2019-04-21T05:33:27.034Z,5.0
2019-04-21T05:34:21.996Z,5.1
2019-04-21T05:35:21.552Z,4.8
2019-04-21T05:36:20.407Z,4.9
2019-04-21T05:37:25.828Z,4.9
2019-04-21T05:38:21.851Z,5.2
2019-04-21T05:39:18.457Z,5.2
2019-04-21T05:40:20.131Z,5.2
2019-04-21T05:41:19.475Z,5.1
2019-04-21T05:42:22.750Z,5.1
2019-04-21T05:43:21.614Z,5.0
2019-04-21T05:44:32.671Z,5.4
2019-04-21T05:45:30.714Z,4.6
2019-04-21T05:46:25.464Z,5.2
2019-04-21T05:47:24.982Z,5.0
2019-04-21T05:49:21.664Z,5.1
2019-04-21T05:50:23.694Z,5.2
2019-04-21T05:51:20.370Z,5.0
2019-04-21T05:52:19.913Z,5.0
2019-04-21T05:53:29.618Z,5.0
2019-04-21T05:54:29.686Z,5.2
2019-04-21T05:55:24.488Z,5.0
2019-04-21T05:56:24.067Z,5.2
2019-04-21T05:57:27.309Z,5.0
2019-04-21T05:58:19.399Z,5.1
2019-04-21T05:59:22.065Z,4.6
2019-04-21T06:00:29.734Z,4.5
2019-04-21T06:01:44.565Z,4.8
2019-04-21T06:02:29.042Z,5.0
2019-04-21T06:03:25.130Z,5.1
2019-04-21T06:04:40.237Z,4.5
2019-04-21T06:05:33.220Z,4.9
2019-04-21T06:06:31.008Z,4.7
2019-04-21T06:08:29.315Z,4.9
2019-04-21T06:09:27.460Z,4.5
2019-04-21T06:10:27.330Z,4.9
2019-04-21T06:11:28.465Z,4.9
2019-04-21T06:12:29.729Z,4.8
2019-04-21T06:13:27.917Z,4.8
2019-04-21T06:14:30.425Z,5.0
2019-04-21T06:15:30.983Z,4.7
2019-04-21T06:16:34.239Z,4.6
2019-04-21T06:17:30.323Z,4.8
2019-04-21T06:18:28.920Z,4.9
2019-04-21T06:19:30.695Z,4.8
2019-04-21T06:20:28.690Z,4.6
2019-04-21T06:21:29.444Z,4.6
2019-04-21T06:22:22.448Z,4.8
2019-04-21T06:23:27.332Z,4.5
2019-04-21T06:24:27.570Z,4.8
2019-04-21T06:26:17.936Z,4.7
2019-04-21T06:27:27.577Z,4.6
2019-04-21T06:28:28.405Z,4.2
2019-04-21T06:29:23.757Z,4.3
2019-04-21T06:30:27.621Z,4.7
2019-04-21T06:32:38.550Z,4.6
2019-04-21T06:33:29.339Z,4.6
2019-04-21T06:34:24.363Z,4.9
2019-04-21T06:35:34.402Z,4.5
2019-04-21T06:37:40.177Z,4.5
2019-04-21T06:38:39.569Z,4.5
2019-04-21T06:39:30.711Z,4.7
2019-04-21T06:40:30.551Z,4.4
2019-04-21T06:42:21.220Z,4.4
2019-04-21T06:43:33.381Z,4.5
2019-04-21T06:44:20.325Z,4.0
2019-04-21T06:45:33.256Z,4.7
2019-04-21T06:46:30.880Z,4.4
2019-04-21T06:47:31.422Z,4.4
2019-04-21T06:48:30.146Z,4.5
2019-04-21T06:49:18.758Z,4.5
2019-04-21T06:50:22.733Z,4.0
2019-04-21T06:51:35.989Z,4.3
2019-04-21T06:53:32.824Z,4.4
2019-04-21T06:54:30.564Z,4.3
2019-04-21T06:55:26.814Z,4.2
2019-04-21T06:56:30.923Z,4.3
2019-04-21T06:57:30.977Z,4.4
2019-04-21T06:58:28.991Z,4.5
2019-04-21T06:59:21.104Z,4.6
2019-04-21T07:00:27.785Z,4.2
2019-04-21T07:01:31.246Z,4.6
2019-04-21T07:02:36.174Z,4.6
2019-04-21T07:03:32.777Z,4.3
2019-04-21T07:04:24.269Z,4.5
2019-04-21T07:05:30.713Z,4.1
2019-04-21T07:06:26.111Z,4.4
2019-04-21T07:07:21.727Z,4.3
2019-04-21T07:08:44.634Z,4.4
2019-04-21T07:09:36.710Z,4.1
2019-04-21T07:10:26.563Z,4.4
2019-04-21T07:11:22.759Z,4.0
2019-04-21T07:12:26.373Z,4.1
2019-04-21T07:13:21.819Z,4.3
2019-04-21T07:14:28.138Z,4.4
2019-04-21T07:15:28.352Z,4.2
2019-04-21T07:16:25.772Z,4.1
2019-04-21T07:17:45.669Z,4.4
2019-04-21T07:18:31.066Z,4.0
2019-04-21T07:19:33.323Z,3.7
2019-04-21T07:20:21.781Z,4.0
2019-04-21T07:21:30.099Z,3.8
2019-04-21T07:22:25.964Z,4.0
2019-04-21T07:23:24.137Z,3.8
2019-04-21T07:24:27.547Z,3.9
2019-04-21T07:25:28.341Z,4.0
2019-04-21T07:26:25.117Z,3.8
2019-04-21T07:27:24.487Z,3.8
2019-04-21T07:28:25.772Z,3.8
2019-04-21T07:29:28.674Z,3.9
2019-04-21T07:30:29.381Z,3.8
2019-04-21T07:31:25.196Z,3.6
2019-04-21T07:32:20.700Z,3.8
2019-04-21T07:33:49.307Z,3.9
2019-04-21T07:34:28.868Z,3.8
2019-04-21T07:35:26.953Z,3.8
2019-04-21T07:36:35.445Z,3.7
2019-04-21T07:37:25.567Z,3.6
2019-04-21T07:38:24.710Z,3.9
2019-04-21T07:39:22.316Z,3.9
2019-04-21T07:40:21.282Z,3.6
2019-04-21T07:41:15.834Z,3.7
2019-04-21T07:42:19.036Z,3.8
2019-04-21T07:43:18.404Z,3.6
2019-04-21T07:44:16.997Z,3.6
2019-04-21T07:45:17.886Z,3.9
2019-04-21T07:46:17.286Z,3.4
2019-04-21T07:47:23.522Z,3.9
2019-04-21T07:48:24.960Z,3.6
2019-04-21T07:49:31.195Z,3.7
2019-04-21T07:50:26.469Z,3.8
2019-04-21T07:51:25.207Z,3.7
2019-04-21T07:52:26.492Z,3.8
2019-04-21T07:53:27.653Z,3.4
2019-04-21T07:54:34.196Z,3.5
2019-04-21T07:56:09.502Z,3.7
2019-04-21T07:57:18.769Z,4.2
2019-04-21T07:59:52.295Z,4.3
2019-04-21T08:00:36.791Z,4.2
2019-04-21T08:01:42.370Z,4.4
2019-04-21T08:02:34.004Z,4.3
2019-04-21T08:03:34.957Z,4.6
2019-04-21T08:05:43.566Z,4.5
2019-04-21T08:06:40.570Z,4.4
2019-04-21T08:07:48.014Z,4.8
2019-04-21T08:08:34.512Z,4.6
2019-04-21T08:09:31.958Z,5.2
2019-04-21T08:10:34.991Z,5.2
2019-04-21T08:11:31.090Z,5.2
2019-04-21T08:12:33.708Z,4.6
2019-04-21T08:13:42.526Z,5.2
2019-04-21T08:14:35.655Z,4.8
2019-04-21T08:15:33.989Z,4.9
2019-04-21T08:16:42.119Z,5.3
2019-04-21T08:17:35.838Z,5.1
2019-04-21T08:18:39.355Z,5.0
2019-04-21T08:19:36.960Z,5.3
2019-04-21T08:20:28.856Z,5.0
2019-04-21T08:21:33.897Z,4.9
2019-04-21T08:22:44.929Z,4.9
2019-04-21T08:23:37.221Z,5.1
2019-04-21T08:24:34.922Z,5.3
2019-04-21T08:25:42.003Z,5.4
2019-04-21T08:26:39.723Z,5.2
2019-04-21T08:27:41.697Z,5.2
2019-04-21T08:29:32.868Z,5.3
2019-04-21T08:30:51.667Z,5.5
2019-04-21T08:31:38.757Z,5.4
2019-04-21T08:32:46.247Z,5.8
2019-04-21T08:33:41.481Z,6.0
2019-04-21T08:34:34.696Z,6.0
2019-04-21T08:35:52.912Z,5.5
2019-04-21T08:36:33.938Z,6.0
2019-04-21T08:37:31.289Z,5.8
2019-04-21T08:38:38.361Z,5.5
2019-04-21T08:39:37.941Z,6.0
2019-04-21T08:40:36.891Z,5.9
2019-04-21T08:41:30.235Z,6.2
2019-04-21T08:42:33.153Z,6.0
2019-04-21T08:43:44.663Z,5.8
2019-04-21T08:44:52.791Z,6.1
2019-04-21T08:45:40.475Z,6.1
2019-04-21T08:46:41.098Z,5.4
2019-04-21T08:47:36.448Z,5.1
2019-04-21T08:48:34.932Z,4.7
2019-04-21T08:49:37.725Z,4.9
2019-04-21T08:50:30.650Z,4.6
2019-04-21T08:53:50.625Z,4.8
2019-04-21T08:54:32.319Z,4.6
2019-04-21T08:55:39.699Z,4.4
2019-04-21T08:56:34.175Z,4.7
2019-04-21T08:57:48.847Z,3.9
2019-04-21T08:58:35.680Z,4.4
2019-04-21T08:59:36.102Z,4.4
2019-04-21T09:01:37.752Z,4.4
2019-04-21T09:02:35.049Z,4.1
2019-04-21T09:03:36.769Z,4.1
2019-04-21T09:04:34.083Z,4.1
2019-04-21T09:06:41.928Z,4.2
2019-04-21T09:07:57.191Z,4.4
2019-04-21T09:08:31.734Z,4.3
2019-04-21T09:09:38.143Z,4.3
2019-04-21T09:10:34.808Z,3.9
2019-04-21T09:11:30.319Z,4.0
2019-04-21T09:12:34.711Z,4.1
2019-04-21T09:13:29.710Z,4.3
2019-04-21T09:14:36.453Z,4.1
2019-04-21T09:15:32.466Z,4.3
2019-04-21T09:16:30.670Z,4.1
2019-04-21T09:17:28.679Z,4.3
2019-04-21T09:18:28.491Z,4.2
2019-04-21T09:19:48.366Z,4.2
2019-04-21T09:20:39.717Z,4.2
2019-04-21T09:21:42.328Z,4.3
2019-04-21T09:22:37.744Z,4.0
2019-04-21T09:23:36.437Z,3.9
2019-04-21T09:24:33.032Z,4.0
2019-04-21T09:26:29.564Z,3.8
2019-04-21T09:27:30.754Z,4.2
2019-04-21T09:28:32.677Z,4.3
2019-04-21T09:29:28.333Z,3.8
2019-04-21T09:30:19.822Z,4.0
2019-04-21T09:31:24.110Z,3.9
2019-04-21T09:32:23.235Z,4.2
2019-04-21T09:33:20.444Z,3.9
2019-04-21T09:34:22.398Z,4.2
2019-04-21T09:35:20.463Z,4.2
2019-04-21T09:36:21.710Z,4.0
2019-04-21T09:37:26.780Z,4.0
2019-04-21T09:38:26.699Z,3.8
2019-04-21T09:39:22.261Z,4.2
2019-04-21T09:40:25.362Z,4.1
2019-04-21T09:41:22.123Z,4.0
2019-04-21T09:42:19.782Z,4.0
2019-04-21T09:43:29.741Z,4.0
2019-04-21T09:44:22.041Z,4.2
2019-04-21T09:45:22.389Z,4.5
2019-04-21T09:46:20.756Z,4.2
2019-04-21T09:47:22.913Z,4.5
2019-04-21T09:48:21.061Z,4.3
2019-04-21T09:49:22.461Z,3.9
2019-04-21T09:50:20.023Z,4.0
2019-04-21T09:51:20.099Z,4.1
2019-04-21T09:52:23.920Z,4.4
2019-04-21T09:53:24.915Z,4.4
2019-04-21T09:54:23.086Z,4.3
2019-04-21T09:55:21.534Z,4.4
2019-04-21T09:56:30.324Z,4.2
2019-04-21T09:57:26.163Z,4.2
2019-04-21T09:58:24.007Z,4.2
2019-04-21T09:59:27.580Z,4.2
2019-04-21T10:00:24.334Z,4.7
2019-04-21T10:01:22.641Z,4.4
2019-04-21T10:02:31.166Z,4.0
2019-04-21T10:03:21.152Z,4.6
2019-04-21T10:04:20.775Z,5.1
2019-04-21T10:05:19.215Z,4.9
2019-04-21T10:06:20.775Z,4.8
2019-04-21T10:07:24.562Z,4.8
2019-04-21T10:08:19.783Z,4.5
2019-04-21T10:09:20.191Z,4.2
2019-04-21T10:10:19.318Z,3.9
2019-04-21T10:11:21.020Z,4.2
2019-04-21T10:12:19.952Z,4.6
2019-04-21T10:13:19.197Z,4.0
2019-04-21T10:14:19.718Z,4.2
2019-04-21T10:15:21.952Z,4.2
2019-04-21T10:16:19.627Z,4.2
2019-04-21T10:17:19.689Z,4.3
2019-04-21T10:18:19.432Z,4.2
2019-04-21T10:19:20.997Z,4.4
2019-04-21T10:20:20.430Z,4.1
2019-04-21T10:21:19.851Z,3.8
2019-04-21T10:22:19.398Z,4.6
2019-04-21T10:23:21.073Z,3.9
2019-04-21T10:24:20.174Z,4.1
2019-04-21T10:25:20.740Z,4.1
2019-04-21T10:26:19.968Z,4.0
2019-04-21T10:27:19.314Z,3.9
2019-04-21T10:28:19.275Z,3.7
2019-04-21T10:29:22.094Z,4.0
2019-04-21T10:30:20.341Z,3.9
2019-04-21T10:31:20.477Z,4.1
2019-04-21T10:32:21.736Z,3.8
2019-04-21T10:33:19.204Z,3.6
2019-04-21T10:34:20.827Z,4.0
2019-04-21T10:35:21.048Z,3.9
2019-04-21T10:36:20.321Z,3.8
2019-04-21T10:37:20.787Z,4.0
2019-04-21T10:38:26.148Z,3.9
2019-04-21T10:39:19.881Z,3.8
2019-04-21T10:40:19.322Z,3.9
2019-04-21T10:41:19.267Z,3.8
2019-04-21T10:42:19.538Z,3.7
2019-04-21T10:43:21.877Z,3.8
2019-04-21T10:44:20.815Z,3.8
2019-04-21T10:45:19.242Z,3.9
2019-04-21T10:46:19.422Z,3.8
2019-04-21T10:47:20.714Z,3.6
2019-04-21T10:48:20.971Z,3.6
2019-04-21T10:49:19.441Z,4.4
2019-04-21T10:50:20.897Z,4.9
2019-04-21T10:51:19.284Z,4.9
2019-04-21T10:54:02.003Z,5.6
2019-04-21T10:54:11.809Z,4.7
2019-04-21T10:55:20.939Z,4.7
2019-04-21T10:56:15.412Z,4.5
2019-04-21T10:57:10.854Z,4.4
2019-04-21T10:58:11.635Z,4.3
2019-04-21T10:59:12.105Z,4.1
2019-04-21T11:00:12.572Z,4.2
2019-04-21T11:01:14.179Z,4.2
2019-04-21T11:02:12.745Z,4.2
2019-04-21T11:03:10.971Z,4.1
2019-04-21T11:04:14.845Z,4.1
2019-04-21T11:05:10.851Z,4.0
2019-04-21T11:06:12.598Z,3.7
2019-04-21T11:07:15.589Z,3.7
2019-04-21T11:08:20.532Z,3.9
2019-04-21T11:09:11.164Z,3.9
2019-04-21T11:10:11.920Z,3.8
2019-04-21T11:11:12.051Z,3.8
2019-04-21T11:21:58.681Z,4.1
2019-04-21T11:22:57.711Z,3.5
2019-04-21T11:23:58.443Z,3.6
2019-04-21T11:24:58.707Z,3.9
2019-04-21T11:25:58.158Z,3.7
2019-04-21T11:26:58.159Z,3.6
2019-04-21T11:27:58.699Z,3.5
2019-04-21T11:28:59.028Z,3.6
2019-04-21T11:29:57.848Z,4.0
2019-04-21T11:30:57.846Z,4.0
2019-04-21T11:32:01.136Z,3.8
2019-04-21T11:32:59.063Z,4.1
2019-04-21T11:33:58.128Z,3.7
2019-04-21T11:34:59.059Z,3.6
2019-04-21T11:35:57.626Z,3.7
2019-04-21T11:36:58.456Z,3.6
2019-04-21T11:38:04.635Z,3.8
2019-04-21T11:39:07.435Z,3.5
2019-04-21T11:40:03.353Z,3.8
2019-04-21T11:40:58.093Z,4.2
2019-04-21T11:41:57.725Z,3.5
2019-04-21T11:42:57.886Z,3.8
2019-04-21T11:43:59.109Z,3.9
2019-04-21T11:44:58.200Z,3.8
2019-04-21T11:45:58.669Z,3.7
2019-04-21T11:46:58.458Z,3.6
2019-04-21T11:47:58.539Z,3.8
2019-04-21T11:48:58.011Z,3.6
2019-04-21T11:49:58.981Z,3.7
2019-04-21T11:50:59.145Z,3.7
2019-04-21T11:51:58.735Z,3.9
2019-04-21T11:52:59.015Z,3.9
2019-04-21T11:53:59.040Z,3.8
2019-04-21T11:54:58.587Z,3.7
2019-04-21T11:55:58.676Z,3.4
2019-04-21T11:56:59.824Z,3.9
2019-04-21T11:58:00.227Z,3.2
2019-04-21T11:58:59.527Z,3.4
2019-04-21T11:59:57.718Z,3.3
2019-04-21T12:00:57.979Z,3.2
2019-04-21T12:01:59.268Z,3.3
2019-04-21T12:02:59.499Z,3.3
2019-04-21T12:03:58.118Z,3.5
2019-04-21T12:04:57.676Z,3.5
2019-04-21T12:05:57.692Z,3.5
2019-04-21T12:06:57.986Z,3.6
2019-04-21T12:08:18.954Z,3.5
2019-04-21T12:09:00.724Z,3.2
2019-04-21T12:09:59.653Z,3.0
2019-04-21T12:10:57.999Z,3.4
2019-04-21T12:11:59.106Z,3.2
2019-04-21T12:12:59.232Z,3.8
2019-04-21T12:13:58.452Z,3.5
2019-04-21T12:14:58.222Z,3.2
2019-04-21T12:15:59.033Z,3.4
2019-04-21T12:16:59.318Z,3.1
2019-04-21T12:17:58.008Z,3.4
2019-04-21T12:18:58.814Z,3.6
2019-04-21T12:19:58.962Z,3.4
2019-04-21T12:20:59.467Z,3.7
2019-04-21T12:22:05.405Z,3.5
2019-04-21T12:23:00.297Z,3.4
2019-04-21T12:23:58.562Z,3.4
2019-04-21T12:24:57.863Z,3.6
2019-04-21T12:25:59.061Z,3.5
2019-04-21T12:26:58.359Z,3.5
2019-04-21T12:27:58.164Z,3.5
2019-04-21T12:28:59.618Z,3.3
2019-04-21T12:29:59.646Z,3.3
2019-04-21T12:31:00.380Z,3.7
2019-04-21T12:31:59.421Z,3.1
2019-04-21T12:32:58.297Z,3.7
2019-04-21T12:33:58.149Z,3.3
2019-04-21T12:34:59.703Z,3.5
2019-04-21T12:36:00.036Z,3.8
2019-04-21T12:36:59.087Z,3.8
2019-04-21T12:37:58.514Z,3.4
2019-04-21T12:39:01.154Z,3.1
2019-04-21T12:39:58.923Z,3.6
2019-04-21T12:41:00.405Z,3.3
2019-04-21T12:41:58.458Z,3.5
2019-04-21T12:42:58.813Z,3.4
2019-04-21T12:43:57.757Z,3.5
2019-04-21T12:44:59.274Z,3.3
2019-04-21T12:45:58.061Z,3.5
2019-04-21T12:46:58.117Z,3.6
2019-04-21T12:48:00.023Z,3.7
2019-04-21T12:48:57.999Z,3.7
2019-04-21T12:49:59.099Z,3.6
2019-04-21T12:50:57.817Z,3.4
2019-04-21T12:51:57.864Z,3.6
2019-04-21T12:52:59.962Z,3.6
2019-04-21T12:53:59.640Z,3.6
2019-04-21T12:56:11.692Z,3.5
2019-04-21T12:57:11.749Z,3.5
2019-04-21T12:58:11.037Z,3.3
2019-04-21T12:59:10.210Z,3.4
2019-04-21T13:00:11.051Z,3.4
2019-04-21T13:01:10.164Z,3.4
2019-04-21T13:02:11.585Z,3.4
2019-04-21T13:03:10.154Z,3.5
2019-04-21T13:04:11.023Z,3.4
2019-04-21T13:05:11.550Z,3.5
2019-04-21T13:06:11.783Z,3.7
2019-04-21T13:07:11.670Z,3.3
2019-04-21T13:08:11.468Z,3.3
2019-04-21T13:09:13.054Z,3.3
2019-04-21T13:10:10.549Z,3.1
2019-04-21T13:11:11.413Z,3.5
2019-04-21T13:12:11.031Z,3.6
2019-04-21T13:13:12.073Z,3.5
2019-04-21T13:14:11.481Z,3.2
2019-04-21T13:15:11.005Z,3.4
2019-04-21T13:21:06.918Z,3.2
2019-04-21T13:21:20.209Z,3.2
2019-04-21T13:22:21.619Z,3.4
2019-04-21T13:23:20.880Z,3.3
2019-04-21T13:24:21.916Z,3.0
2019-04-21T13:25:20.101Z,3.1
2019-04-21T13:26:29.591Z,3.2
2019-04-21T13:27:20.614Z,2.9
2019-04-21T13:28:20.768Z,3.2
2019-04-21T13:29:21.397Z,2.9
2019-04-21T13:30:20.133Z,3.4
2019-04-21T13:31:20.276Z,3.3
2019-04-21T13:32:20.547Z,3.2
2019-04-21T13:33:21.022Z,3.1
2019-04-21T13:34:20.106Z,3.1
2019-04-21T13:35:21.211Z,3.1
2019-04-21T13:36:23.443Z,3.1
2019-04-21T13:37:21.383Z,3.0
2019-04-21T13:38:29.357Z,3.2
2019-04-21T13:39:49.111Z,3.0
2019-04-21T13:40:38.808Z,2.8
2019-04-21T13:41:29.676Z,3.0
2019-04-21T13:42:25.818Z,2.9
2019-04-21T13:43:21.067Z,3.1
2019-04-21T13:44:21.276Z,2.6
2019-04-21T13:45:19.968Z,3.1
2019-04-21T13:46:20.623Z,3.1
2019-04-21T13:47:20.773Z,2.8
2019-04-21T13:48:20.478Z,3.1
2019-04-21T13:50:35.292Z,2.9
2019-04-21T13:51:34.006Z,3.1
2019-04-21T13:52:33.253Z,3.3
2019-04-21T13:53:34.471Z,3.2
2019-04-21T13:54:33.868Z,3.0
2019-04-21T13:55:36.680Z,2.9
2019-04-21T13:56:34.414Z,2.9
2019-04-21T13:57:34.587Z,2.8
2019-04-21T13:58:34.554Z,2.9
2019-04-21T13:59:34.292Z,2.9
2019-04-21T14:00:33.806Z,2.9
2019-04-21T14:01:33.936Z,3.0
2019-04-21T14:02:34.429Z,3.0
2019-04-21T14:03:33.510Z,2.8
2019-04-21T14:04:33.642Z,3.1
2019-04-21T14:05:33.483Z,3.2
2019-04-21T14:06:34.249Z,3.5
2019-04-21T14:07:34.394Z,3.1
2019-04-21T14:08:34.038Z,3.0
2019-04-21T14:09:37.794Z,3.1
2019-04-21T14:10:33.590Z,3.2
2019-04-21T14:11:33.616Z,3.2
2019-04-21T14:12:33.437Z,3.2
2019-04-21T14:13:34.245Z,2.8
2019-04-21T14:14:34.450Z,3.1
2019-04-21T14:15:33.053Z,3.1
2019-04-21T14:16:34.014Z,3.3
2019-04-21T14:17:33.040Z,3.1
2019-04-21T14:18:45.490Z,3.1
2019-04-21T14:19:45.605Z,3.0
2019-04-21T14:20:43.335Z,3.0
2019-04-21T14:21:37.180Z,2.5
2019-04-21T14:22:35.885Z,2.6
2019-04-21T14:23:38.094Z,2.7
2019-04-21T14:24:33.022Z,2.8
2019-04-21T14:25:33.038Z,2.4
2019-04-21T14:26:34.239Z,2.8
2019-04-21T14:27:34.362Z,2.7
2019-04-21T14:28:33.578Z,2.9
2019-04-21T14:29:33.543Z,2.9
2019-04-21T14:30:34.587Z,2.5
2019-04-21T14:31:34.517Z,2.6
2019-04-21T14:32:33.783Z,2.7
2019-04-21T14:33:34.187Z,2.3
2019-04-21T14:34:34.030Z,2.8
2019-04-21T14:35:33.089Z,2.9
2019-04-21T14:36:33.093Z,2.7
2019-04-21T14:37:33.099Z,2.5
2019-04-21T14:38:34.350Z,2.7
2019-04-21T14:39:35.665Z,2.7
2019-04-21T14:40:33.732Z,2.8
2019-04-21T14:41:33.243Z,2.8
2019-04-21T14:42:34.006Z,2.7
2019-04-21T14:43:34.111Z,2.8
2019-04-21T14:44:33.547Z,2.8
2019-04-21T14:45:34.625Z,3.0
2019-04-21T14:46:33.333Z,2.8
2019-04-21T14:47:34.976Z,3.0
2019-04-21T14:48:33.322Z,2.7
2019-04-21T14:49:33.535Z,3.0
2019-04-21T14:50:34.366Z,3.0
2019-04-21T14:51:34.896Z,3.0
2019-04-21T14:52:35.034Z,2.8
2019-04-21T14:53:34.161Z,3.0
2019-04-21T14:55:09.454Z,2.7
2019-04-21T14:55:35.315Z,2.5
2019-04-21T14:56:33.479Z,2.8
2019-04-21T14:57:33.517Z,2.7
2019-04-21T14:58:33.044Z,2.9
2019-04-21T14:59:33.564Z,2.4
2019-04-21T15:00:34.111Z,2.6
2019-04-21T15:01:33.707Z,2.5
2019-04-21T15:02:33.928Z,2.8
2019-04-21T15:03:34.247Z,2.8
2019-04-21T15:04:33.474Z,2.8
2019-04-21T15:06:47.540Z,2.4
2019-04-21T15:07:46.044Z,2.8
2019-04-21T15:08:47.043Z,2.9
2019-04-21T15:09:46.442Z,2.8
2019-04-21T15:10:47.140Z,2.9
2019-04-21T15:11:47.619Z,2.7
2019-04-21T15:12:45.808Z,2.7
2019-04-21T15:13:46.018Z,2.8
2019-04-21T15:14:47.569Z,2.9
2019-04-21T15:15:47.820Z,3.0